sensor_id;sensor_type;location;lat;lon;timestamp;P1;durP1;ratioP1;P2;durP2;ratioP2
74689;SDS011;63221;51.860;-2.188;2022-09-14T00:01:25;9.93;;;4.07;;
74689;SDS011;63221;51.860;-2.188;2022-09-14T00:03:59;6.53;;;3.85;;
74689;SDS011;63221;51.860;-2.188;2022-09-14T00:06:27;7.28;;;3.83;;
74689;SDS011;63221;51.860;-2.188;2022-09-14T00:08:53;5.53;;;3.70;;
74689;SDS011;63221;51.860;-2.188;2022-09-14T00:11:20;6.68;;;3.60;;
74689;SDS011;63221;51.860;-2.188;2022-09-14T00:13:47;13.88;;;4.25;;
74689;SDS011;63221;51.860;-2.188;2022-09-14T00:16:14;8.70;;;3.47;;
74689;SDS011;63221;51.860;-2.188;2022-09-14T00:18:48;7.43;;;4.40;;
74689;SDS011;63221;51.860;-2.188;2022-09-14T00:21:15;6.93;;;3.73;;
74689;SDS011;63221;51.860;-2.188;2022-09-14T00:23:40;8.32;;;4.68;;
74689;SDS011;63221;51.860;-2.188;2022-09-14T00:26:07;9.03;;;5.30;;
74689;SDS011;63221;51.860;-2.188;2022-09-14T00:28:41;10.00;;;4.28;;
74689;SDS011;63221;51.860;-2.188;2022-09-14T00:31:11;8.60;;;4.40;;
74689;SDS011;63221;51.860;-2.188;2022-09-14T00:33:37;7.47;;;4.53;;
74689;SDS011;63221;51.860;-2.188;2022-09-14T00:36:04;9.53;;;4.73;;
74689;SDS011;63221;51.860;-2.188;2022-09-14T00:38:33;9.35;;;5.05;;
74689;SDS011;63221;51.860;-2.188;2022-09-14T00:40:58;12.40;;;5.07;;
74689;SDS011;63221;51.860;-2.188;2022-09-14T00:43:24;8.17;;;4.20;;
74689;SDS011;63221;51.860;-2.188;2022-09-14T00:45:50;14.45;;;5.82;;
74689;SDS011;63221;51.860;-2.188;2022-09-14T00:48:15;11.77;;;5.20;;
74689;SDS011;63221;51.860;-2.188;2022-09-14T00:50:41;7.72;;;5.32;;
74689;SDS011;63221;51.860;-2.188;2022-09-14T00:53:06;10.70;;;5.53;;
74689;SDS011;63221;51.860;-2.188;2022-09-14T00:55:32;8.43;;;6.00;;
74689;SDS011;63221;51.860;-2.188;2022-09-14T00:57:57;12.67;;;4.80;;
74689;SDS011;63221;51.860;-2.188;2022-09-14T01:00:24;9.65;;;4.68;;
74689;SDS011;63221;51.860;-2.188;2022-09-14T01:02:51;9.77;;;5.43;;
74689;SDS011;63221;51.860;-2.188;2022-09-14T01:05:17;8.83;;;5.60;;
74689;SDS011;63221;51.860;-2.188;2022-09-14T01:07:52;8.60;;;4.65;;
74689;SDS011;63221;51.860;-2.188;2022-09-14T01:13:08;8.18;;;5.55;;
74689;SDS011;63221;51.860;-2.188;2022-09-14T01:18:48;11.65;;;5.68;;
74689;SDS011;63221;51.860;-2.188;2022-09-14T01:21:19;8.85;;;5.53;;
74689;SDS011;63221;51.860;-2.188;2022-09-14T01:23:58;10.48;;;6.00;;
74689;SDS011;63221;51.860;-2.188;2022-09-14T01:31:51;10.55;;;6.07;;
74689;SDS011;63221;51.860;-2.188;2022-09-14T01:34:25;11.60;;;6.03;;
74689;SDS011;63221;51.860;-2.188;2022-09-14T01:37:01;8.55;;;5.20;;
74689;SDS011;63221;51.860;-2.188;2022-09-14T01:39:29;9.23;;;5.40;;
74689;SDS011;63221;51.860;-2.188;2022-09-14T01:41:55;9.97;;;6.07;;
74689;SDS011;63221;51.860;-2.188;2022-09-14T01:44:23;10.10;;;5.53;;
74689;SDS011;63221;51.860;-2.188;2022-09-14T01:46:55;9.25;;;5.47;;
74689;SDS011;63221;51.860;-2.188;2022-09-14T01:49:29;8.90;;;5.73;;
74689;SDS011;63221;51.860;-2.188;2022-09-14T01:51:59;11.77;;;5.80;;
74689;SDS011;63221;51.860;-2.188;2022-09-14T01:54:50;7.38;;;5.15;;
74689;SDS011;63221;51.860;-2.188;2022-09-14T01:57:35;9.23;;;4.97;;
74689;SDS011;63221;51.860;-2.188;2022-09-14T02:00:07;9.57;;;5.50;;
74689;SDS011;63221;51.860;-2.188;2022-09-14T02:07:50;9.75;;;6.07;;
74689;SDS011;63221;51.860;-2.188;2022-09-14T02:10:15;8.53;;;5.67;;
74689;SDS011;63221;51.860;-2.188;2022-09-14T02:12:41;10.07;;;6.28;;
74689;SDS011;63221;51.860;-2.188;2022-09-14T02:15:08;11.25;;;5.00;;
74689;SDS011;63221;51.860;-2.188;2022-09-14T02:17:34;10.25;;;6.35;;
74689;SDS011;63221;51.860;-2.188;2022-09-14T02:20:00;8.90;;;5.40;;
74689;SDS011;63221;51.860;-2.188;2022-09-14T02:22:29;9.32;;;5.80;;
74689;SDS011;63221;51.860;-2.188;2022-09-14T02:24:55;10.23;;;4.93;;
74689;SDS011;63221;51.860;-2.188;2022-09-14T02:27:20;12.05;;;5.90;;
74689;SDS011;63221;51.860;-2.188;2022-09-14T02:29:46;10.13;;;5.93;;
74689;SDS011;63221;51.860;-2.188;2022-09-14T02:32:19;9.73;;;5.93;;
74689;SDS011;63221;51.860;-2.188;2022-09-14T02:37:20;12.63;;;6.30;;
74689;SDS011;63221;51.860;-2.188;2022-09-14T02:48:32;11.97;;;6.67;;
74689;SDS011;63221;51.860;-2.188;2022-09-14T02:53:46;9.68;;;5.80;;
74689;SDS011;63221;51.860;-2.188;2022-09-14T02:56:19;11.48;;;6.90;;
74689;SDS011;63221;51.860;-2.188;2022-09-14T02:58:45;13.73;;;6.90;;
74689;SDS011;63221;51.860;-2.188;2022-09-14T03:01:12;10.63;;;6.67;;
74689;SDS011;63221;51.860;-2.188;2022-09-14T03:03:39;11.57;;;6.67;;
74689;SDS011;63221;51.860;-2.188;2022-09-14T03:06:05;13.15;;;6.43;;
74689;SDS011;63221;51.860;-2.188;2022-09-14T03:08:30;12.73;;;6.60;;
74689;SDS011;63221;51.860;-2.188;2022-09-14T03:10:56;11.30;;;6.05;;
74689;SDS011;63221;51.860;-2.188;2022-09-14T03:13:22;12.20;;;6.10;;
74689;SDS011;63221;51.860;-2.188;2022-09-14T03:15:48;12.00;;;6.40;;
74689;SDS011;63221;51.860;-2.188;2022-09-14T03:18:13;11.33;;;6.20;;
74689;SDS011;63221;51.860;-2.188;2022-09-14T03:20:39;10.60;;;6.07;;
74689;SDS011;63221;51.860;-2.188;2022-09-14T03:23:04;10.77;;;5.80;;
74689;SDS011;63221;51.860;-2.188;2022-09-14T03:25:34;12.52;;;6.25;;
74689;SDS011;63221;51.860;-2.188;2022-09-14T03:28:01;14.38;;;5.75;;
74689;SDS011;63221;51.860;-2.188;2022-09-14T03:30:26;11.00;;;6.23;;
74689;SDS011;63221;51.860;-2.188;2022-09-14T03:32:53;11.00;;;6.30;;
74689;SDS011;63221;51.860;-2.188;2022-09-14T03:35:18;11.03;;;6.23;;
74689;SDS011;63221;51.860;-2.188;2022-09-14T03:37:44;9.68;;;5.93;;
74689;SDS011;63221;51.860;-2.188;2022-09-14T03:40:11;13.23;;;7.03;;
74689;SDS011;63221;51.860;-2.188;2022-09-14T03:42:40;11.25;;;5.78;;
74689;SDS011;63221;51.860;-2.188;2022-09-14T03:45:10;14.70;;;6.40;;
74689;SDS011;63221;51.860;-2.188;2022-09-14T03:47:36;11.55;;;6.72;;
74689;SDS011;63221;51.860;-2.188;2022-09-14T03:50:01;13.57;;;6.37;;
74689;SDS011;63221;51.860;-2.188;2022-09-14T03:52:27;12.35;;;6.30;;
74689;SDS011;63221;51.860;-2.188;2022-09-14T03:54:52;11.00;;;6.33;;
74689;SDS011;63221;51.860;-2.188;2022-09-14T03:57:18;8.83;;;5.50;;
74689;SDS011;63221;51.860;-2.188;2022-09-14T03:59:43;15.23;;;5.93;;
74689;SDS011;63221;51.860;-2.188;2022-09-14T04:02:08;11.10;;;6.30;;
74689;SDS011;63221;51.860;-2.188;2022-09-14T04:04:34;13.05;;;5.63;;
74689;SDS011;63221;51.860;-2.188;2022-09-14T04:06:59;12.90;;;5.87;;
74689;SDS011;63221;51.860;-2.188;2022-09-14T04:09:24;10.63;;;6.27;;
74689;SDS011;63221;51.860;-2.188;2022-09-14T04:11:50;10.50;;;5.97;;
74689;SDS011;63221;51.860;-2.188;2022-09-14T04:14:15;11.15;;;5.15;;
74689;SDS011;63221;51.860;-2.188;2022-09-14T04:16:41;11.60;;;5.20;;
74689;SDS011;63221;51.860;-2.188;2022-09-14T04:19:09;9.70;;;4.95;;
74689;SDS011;63221;51.860;-2.188;2022-09-14T04:21:36;10.88;;;5.82;;
74689;SDS011;63221;51.860;-2.188;2022-09-14T04:24:01;11.20;;;5.05;;
74689;SDS011;63221;51.860;-2.188;2022-09-14T04:26:27;10.10;;;5.60;;
74689;SDS011;63221;51.860;-2.188;2022-09-14T04:28:54;8.88;;;5.15;;
74689;SDS011;63221;51.860;-2.188;2022-09-14T04:31:20;10.07;;;5.47;;
74689;SDS011;63221;51.860;-2.188;2022-09-14T04:33:46;11.93;;;5.80;;
74689;SDS011;63221;51.860;-2.188;2022-09-14T04:36:18;11.85;;;5.65;;
74689;SDS011;63221;51.860;-2.188;2022-09-14T04:38:44;10.65;;;5.78;;
74689;SDS011;63221;51.860;-2.188;2022-09-14T04:41:14;13.37;;;5.50;;
74689;SDS011;63221;51.860;-2.188;2022-09-14T04:43:41;11.07;;;4.82;;
74689;SDS011;63221;51.860;-2.188;2022-09-14T04:46:11;10.80;;;6.32;;
74689;SDS011;63221;51.860;-2.188;2022-09-14T04:48:39;11.17;;;5.57;;
74689;SDS011;63221;51.860;-2.188;2022-09-14T04:51:06;12.40;;;5.05;;
74689;SDS011;63221;51.860;-2.188;2022-09-14T04:53:34;10.18;;;6.05;;
74689;SDS011;63221;51.860;-2.188;2022-09-14T04:56:00;11.13;;;6.68;;
74689;SDS011;63221;51.860;-2.188;2022-09-14T04:58:27;11.03;;;5.90;;
74689;SDS011;63221;51.860;-2.188;2022-09-14T05:00:53;11.40;;;6.18;;
74689;SDS011;63221;51.860;-2.188;2022-09-14T05:03:19;10.32;;;5.88;;
74689;SDS011;63221;51.860;-2.188;2022-09-14T05:05:46;11.45;;;6.25;;
74689;SDS011;63221;51.860;-2.188;2022-09-14T05:08:11;13.47;;;5.70;;
74689;SDS011;63221;51.860;-2.188;2022-09-14T05:10:37;12.10;;;6.00;;
74689;SDS011;63221;51.860;-2.188;2022-09-14T05:13:02;13.13;;;6.97;;
74689;SDS011;63221;51.860;-2.188;2022-09-14T05:15:27;11.23;;;6.30;;
74689;SDS011;63221;51.860;-2.188;2022-09-14T05:17:53;11.87;;;6.43;;
74689;SDS011;63221;51.860;-2.188;2022-09-14T05:20:18;11.87;;;6.43;;
74689;SDS011;63221;51.860;-2.188;2022-09-14T05:22:43;10.87;;;6.30;;
74689;SDS011;63221;51.860;-2.188;2022-09-14T05:25:09;10.13;;;5.78;;
74689;SDS011;63221;51.860;-2.188;2022-09-14T05:27:34;14.37;;;6.03;;
74689;SDS011;63221;51.860;-2.188;2022-09-14T05:30:00;16.53;;;6.93;;
74689;SDS011;63221;51.860;-2.188;2022-09-14T05:32:25;11.37;;;6.23;;
74689;SDS011;63221;51.860;-2.188;2022-09-14T05:34:50;10.03;;;5.67;;
74689;SDS011;63221;51.860;-2.188;2022-09-14T05:37:16;11.13;;;5.85;;
74689;SDS011;63221;51.860;-2.188;2022-09-14T05:39:41;11.87;;;5.93;;
74689;SDS011;63221;51.860;-2.188;2022-09-14T05:42:06;9.93;;;5.47;;
74689;SDS011;63221;51.860;-2.188;2022-09-14T05:44:33;10.88;;;6.10;;
74689;SDS011;63221;51.860;-2.188;2022-09-14T05:46:58;12.67;;;6.33;;
74689;SDS011;63221;51.860;-2.188;2022-09-14T05:49:24;10.30;;;6.33;;
74689;SDS011;63221;51.860;-2.188;2022-09-14T05:51:49;11.30;;;6.40;;
74689;SDS011;63221;51.860;-2.188;2022-09-14T05:54:14;13.30;;;6.20;;
74689;SDS011;63221;51.860;-2.188;2022-09-14T05:56:40;11.17;;;5.60;;
74689;SDS011;63221;51.860;-2.188;2022-09-14T05:59:05;11.13;;;5.90;;
74689;SDS011;63221;51.860;-2.188;2022-09-14T06:01:31;10.03;;;5.97;;
74689;SDS011;63221;51.860;-2.188;2022-09-14T06:03:57;11.32;;;5.55;;
74689;SDS011;63221;51.860;-2.188;2022-09-14T06:06:26;11.80;;;6.63;;
74689;SDS011;63221;51.860;-2.188;2022-09-14T06:08:52;12.45;;;6.28;;
74689;SDS011;63221;51.860;-2.188;2022-09-14T06:11:20;13.67;;;5.80;;
74689;SDS011;63221;51.860;-2.188;2022-09-14T06:13:47;11.00;;;6.20;;
74689;SDS011;63221;51.860;-2.188;2022-09-14T06:16:14;11.35;;;7.32;;
74689;SDS011;63221;51.860;-2.188;2022-09-14T06:18:42;11.57;;;6.55;;
74689;SDS011;63221;51.860;-2.188;2022-09-14T06:21:09;12.73;;;6.13;;
74689;SDS011;63221;51.860;-2.188;2022-09-14T06:23:39;15.17;;;6.43;;
74689;SDS011;63221;51.860;-2.188;2022-09-14T06:26:05;13.88;;;7.03;;
74689;SDS011;63221;51.860;-2.188;2022-09-14T06:28:31;12.18;;;7.05;;
74689;SDS011;63221;51.860;-2.188;2022-09-14T06:30:56;11.43;;;6.83;;
74689;SDS011;63221;51.860;-2.188;2022-09-14T06:33:23;12.18;;;6.20;;
74689;SDS011;63221;51.860;-2.188;2022-09-14T06:36:07;14.63;;;7.13;;
74689;SDS011;63221;51.860;-2.188;2022-09-14T06:38:36;11.38;;;6.45;;
74689;SDS011;63221;51.860;-2.188;2022-09-14T06:41:03;13.03;;;6.87;;
74689;SDS011;63221;51.860;-2.188;2022-09-14T06:43:31;16.30;;;6.68;;
74689;SDS011;63221;51.860;-2.188;2022-09-14T06:45:58;14.65;;;7.43;;
74689;SDS011;63221;51.860;-2.188;2022-09-14T06:48:35;13.45;;;6.78;;
74689;SDS011;63221;51.860;-2.188;2022-09-14T06:51:15;16.38;;;7.20;;
74689;SDS011;63221;51.860;-2.188;2022-09-14T06:53:43;12.67;;;6.33;;
74689;SDS011;63221;51.860;-2.188;2022-09-14T06:56:09;14.18;;;6.75;;
74689;SDS011;63221;51.860;-2.188;2022-09-14T06:58:34;18.05;;;8.02;;
74689;SDS011;63221;51.860;-2.188;2022-09-14T07:01:04;15.43;;;7.03;;
74689;SDS011;63221;51.860;-2.188;2022-09-14T07:03:30;17.00;;;8.07;;
74689;SDS011;63221;51.860;-2.188;2022-09-14T07:06:04;16.48;;;8.07;;
74689;SDS011;63221;51.860;-2.188;2022-09-14T07:08:34;15.70;;;8.18;;
74689;SDS011;63221;51.860;-2.188;2022-09-14T07:11:00;15.73;;;7.47;;
74689;SDS011;63221;51.860;-2.188;2022-09-14T07:13:26;14.53;;;7.83;;
74689;SDS011;63221;51.860;-2.188;2022-09-14T07:15:52;15.07;;;8.35;;
74689;SDS011;63221;51.860;-2.188;2022-09-14T07:18:19;16.95;;;8.35;;
74689;SDS011;63221;51.860;-2.188;2022-09-14T07:20:46;16.88;;;8.13;;
74689;SDS011;63221;51.860;-2.188;2022-09-14T07:23:12;14.27;;;7.73;;
74689;SDS011;63221;51.860;-2.188;2022-09-14T07:25:37;15.07;;;7.95;;
74689;SDS011;63221;51.860;-2.188;2022-09-14T07:28:03;13.03;;;7.43;;
74689;SDS011;63221;51.860;-2.188;2022-09-14T07:30:28;16.17;;;8.60;;
74689;SDS011;63221;51.860;-2.188;2022-09-14T07:32:53;16.10;;;7.37;;
74689;SDS011;63221;51.860;-2.188;2022-09-14T07:35:19;18.35;;;8.35;;
74689;SDS011;63221;51.860;-2.188;2022-09-14T07:37:45;19.40;;;8.80;;
74689;SDS011;63221;51.860;-2.188;2022-09-14T07:40:10;13.87;;;8.00;;
74689;SDS011;63221;51.860;-2.188;2022-09-14T07:42:36;14.23;;;7.63;;
74689;SDS011;63221;51.860;-2.188;2022-09-14T07:45:05;18.02;;;8.20;;
74689;SDS011;63221;51.860;-2.188;2022-09-14T07:47:30;15.48;;;8.23;;
74689;SDS011;63221;51.860;-2.188;2022-09-14T07:49:56;15.10;;;8.30;;
74689;SDS011;63221;51.860;-2.188;2022-09-14T07:52:21;15.07;;;7.90;;
74689;SDS011;63221;51.860;-2.188;2022-09-14T07:54:47;14.37;;;7.97;;
74689;SDS011;63221;51.860;-2.188;2022-09-14T07:57:12;14.30;;;7.77;;
74689;SDS011;63221;51.860;-2.188;2022-09-14T07:59:37;12.90;;;7.88;;
74689;SDS011;63221;51.860;-2.188;2022-09-14T08:02:05;12.87;;;7.73;;
74689;SDS011;63221;51.860;-2.188;2022-09-14T08:04:32;13.90;;;7.15;;
74689;SDS011;63221;51.860;-2.188;2022-09-14T08:07:03;14.20;;;7.50;;
74689;SDS011;63221;51.860;-2.188;2022-09-14T08:09:29;14.43;;;7.28;;
74689;SDS011;63221;51.860;-2.188;2022-09-14T08:11:54;19.10;;;8.27;;
74689;SDS011;63221;51.860;-2.188;2022-09-14T08:14:20;12.70;;;8.27;;
74689;SDS011;63221;51.860;-2.188;2022-09-14T08:16:45;14.98;;;7.93;;
74689;SDS011;63221;51.860;-2.188;2022-09-14T08:19:12;15.67;;;8.13;;
74689;SDS011;63221;51.860;-2.188;2022-09-14T08:21:40;18.90;;;9.43;;
74689;SDS011;63221;51.860;-2.188;2022-09-14T08:24:05;13.70;;;8.00;;
74689;SDS011;63221;51.860;-2.188;2022-09-14T08:26:32;14.80;;;8.43;;
74689;SDS011;63221;51.860;-2.188;2022-09-14T08:28:58;14.20;;;8.15;;
74689;SDS011;63221;51.860;-2.188;2022-09-14T08:31:25;15.85;;;7.30;;
74689;SDS011;63221;51.860;-2.188;2022-09-14T08:33:52;16.95;;;8.27;;
74689;SDS011;63221;51.860;-2.188;2022-09-14T08:36:22;15.27;;;8.38;;
74689;SDS011;63221;51.860;-2.188;2022-09-14T08:38:48;14.97;;;8.87;;
74689;SDS011;63221;51.860;-2.188;2022-09-14T08:43:44;15.95;;;8.60;;
74689;SDS011;63221;51.860;-2.188;2022-09-14T08:46:29;16.13;;;8.63;;
74689;SDS011;63221;51.860;-2.188;2022-09-14T08:48:57;15.55;;;8.13;;
74689;SDS011;63221;51.860;-2.188;2022-09-14T08:51:23;13.85;;;7.25;;
74689;SDS011;63221;51.860;-2.188;2022-09-14T08:53:49;15.83;;;8.13;;
74689;SDS011;63221;51.860;-2.188;2022-09-14T08:56:28;19.08;;;8.30;;
74689;SDS011;63221;51.860;-2.188;2022-09-14T08:59:08;15.65;;;7.53;;
74689;SDS011;63221;51.860;-2.188;2022-09-14T09:04:16;17.57;;;7.20;;
74689;SDS011;63221;51.860;-2.188;2022-09-14T09:07:07;16.02;;;8.02;;
74689;SDS011;63221;51.860;-2.188;2022-09-14T09:09:40;16.75;;;7.57;;
74689;SDS011;63221;51.860;-2.188;2022-09-14T09:12:55;11.82;;;6.40;;
74689;SDS011;63221;51.860;-2.188;2022-09-14T09:15:02;13.18;;;6.88;;
74689;SDS011;63221;51.860;-2.188;2022-09-14T09:17:39;17.67;;;8.03;;
74689;SDS011;63221;51.860;-2.188;2022-09-14T09:20:31;11.93;;;6.78;;
74689;SDS011;63221;51.860;-2.188;2022-09-14T09:23:10;11.25;;;6.70;;
74689;SDS011;63221;51.860;-2.188;2022-09-14T09:25:52;9.60;;;6.22;;
74689;SDS011;63221;51.860;-2.188;2022-09-14T09:28:19;12.85;;;6.03;;
74689;SDS011;63221;51.860;-2.188;2022-09-14T09:30:46;8.73;;;5.63;;
74689;SDS011;63221;51.860;-2.188;2022-09-14T09:33:16;10.50;;;6.32;;
74689;SDS011;63221;51.860;-2.188;2022-09-14T09:35:45;12.00;;;6.18;;
74689;SDS011;63221;51.860;-2.188;2022-09-14T09:38:15;8.60;;;6.27;;
74689;SDS011;63221;51.860;-2.188;2022-09-14T09:40:48;11.85;;;5.60;;
74689;SDS011;63221;51.860;-2.188;2022-09-14T09:43:35;10.27;;;6.03;;
74689;SDS011;63221;51.860;-2.188;2022-09-14T09:46:21;12.20;;;6.28;;
74689;SDS011;63221;51.860;-2.188;2022-09-14T09:48:47;9.83;;;6.40;;
74689;SDS011;63221;51.860;-2.188;2022-09-14T09:51:13;11.43;;;7.13;;
74689;SDS011;63221;51.860;-2.188;2022-09-14T09:53:47;11.93;;;7.40;;
74689;SDS011;63221;51.860;-2.188;2022-09-14T09:56:18;13.23;;;7.47;;
74689;SDS011;63221;51.860;-2.188;2022-09-14T09:58:48;12.10;;;6.63;;
74689;SDS011;63221;51.860;-2.188;2022-09-14T10:06:24;16.08;;;7.55;;
74689;SDS011;63221;51.860;-2.188;2022-09-14T10:08:49;12.60;;;7.57;;
74689;SDS011;63221;51.860;-2.188;2022-09-14T10:11:32;11.60;;;6.47;;
74689;SDS011;63221;51.860;-2.188;2022-09-14T10:14:01;14.77;;;8.20;;
74689;SDS011;63221;51.860;-2.188;2022-09-14T10:16:31;12.40;;;7.13;;
74689;SDS011;63221;51.860;-2.188;2022-09-14T10:18:59;11.82;;;6.43;;
74689;SDS011;63221;51.860;-2.188;2022-09-14T10:21:27;11.77;;;6.23;;
74689;SDS011;63221;51.860;-2.188;2022-09-14T10:26:50;12.55;;;6.20;;
74689;SDS011;63221;51.860;-2.188;2022-09-14T10:29:27;10.73;;;6.50;;
74689;SDS011;63221;51.860;-2.188;2022-09-14T10:32:04;10.00;;;6.43;;
74689;SDS011;63221;51.860;-2.188;2022-09-14T10:34:36;9.88;;;6.32;;
74689;SDS011;63221;51.860;-2.188;2022-09-14T10:40:09;10.07;;;5.90;;
74689;SDS011;63221;51.860;-2.188;2022-09-14T10:45:34;13.80;;;6.97;;
74689;SDS011;63221;51.860;-2.188;2022-09-14T10:59:30;10.23;;;5.57;;
74689;SDS011;63221;51.860;-2.188;2022-09-14T11:18:36;9.97;;;4.37;;
74689;SDS011;63221;51.860;-2.188;2022-09-14T11:21:19;8.30;;;4.72;;
74689;SDS011;63221;51.860;-2.188;2022-09-14T11:23:54;8.20;;;4.22;;
74689;SDS011;63221;51.860;-2.188;2022-09-14T11:29:09;7.63;;;4.17;;
74689;SDS011;63221;51.860;-2.188;2022-09-14T11:34:25;7.00;;;4.25;;
74689;SDS011;63221;51.860;-2.188;2022-09-14T11:37:09;7.85;;;4.15;;
74689;SDS011;63221;51.860;-2.188;2022-09-14T11:39:41;9.63;;;4.63;;
74689;SDS011;63221;51.860;-2.188;2022-09-14T11:42:14;6.17;;;2.83;;
74689;SDS011;63221;51.860;-2.188;2022-09-14T11:44:42;8.38;;;4.47;;
74689;SDS011;63221;51.860;-2.188;2022-09-14T11:47:15;8.40;;;4.38;;
74689;SDS011;63221;51.860;-2.188;2022-09-14T11:49:55;7.35;;;4.22;;
74689;SDS011;63221;51.860;-2.188;2022-09-14T11:52:25;8.52;;;4.43;;
74689;SDS011;63221;51.860;-2.188;2022-09-14T11:54:52;5.37;;;3.73;;
74689;SDS011;63221;51.860;-2.188;2022-09-14T11:57:22;4.95;;;3.25;;
74689;SDS011;63221;51.860;-2.188;2022-09-14T11:59:57;5.97;;;3.22;;
74689;SDS011;63221;51.860;-2.188;2022-09-14T12:12:49;6.53;;;2.80;;
74689;SDS011;63221;51.860;-2.188;2022-09-14T12:15:21;4.72;;;2.50;;
74689;SDS011;63221;51.860;-2.188;2022-09-14T12:20:34;5.53;;;2.63;;
74689;SDS011;63221;51.860;-2.188;2022-09-14T12:28:37;6.88;;;2.47;;
74689;SDS011;63221;51.860;-2.188;2022-09-14T12:31:06;2.97;;;2.00;;
74689;SDS011;63221;51.860;-2.188;2022-09-14T12:46:02;5.13;;;3.22;;
74689;SDS011;63221;51.860;-2.188;2022-09-14T13:04:31;3.90;;;1.90;;
74689;SDS011;63221;51.860;-2.188;2022-09-14T13:06:59;4.28;;;2.00;;
74689;SDS011;63221;51.860;-2.188;2022-09-14T13:09:26;3.72;;;2.15;;
74689;SDS011;63221;51.860;-2.188;2022-09-14T13:11:59;6.97;;;1.85;;
74689;SDS011;63221;51.860;-2.188;2022-09-14T13:14:28;5.82;;;2.25;;
74689;SDS011;63221;51.860;-2.188;2022-09-14T13:16:56;4.53;;;2.30;;
74689;SDS011;63221;51.860;-2.188;2022-09-14T13:19:27;6.50;;;2.47;;
74689;SDS011;63221;51.860;-2.188;2022-09-14T13:21:55;4.15;;;1.80;;
74689;SDS011;63221;51.860;-2.188;2022-09-14T13:27:00;6.63;;;2.28;;
74689;SDS011;63221;51.860;-2.188;2022-09-14T13:29:26;4.40;;;1.80;;
74689;SDS011;63221;51.860;-2.188;2022-09-14T13:31:52;8.52;;;2.03;;
74689;SDS011;63221;51.860;-2.188;2022-09-14T13:34:23;4.55;;;2.33;;
74689;SDS011;63221;51.860;-2.188;2022-09-14T13:36:50;4.15;;;1.80;;
74689;SDS011;63221;51.860;-2.188;2022-09-14T13:39:50;6.32;;;2.17;;
74689;SDS011;63221;51.860;-2.188;2022-09-14T13:42:09;9.10;;;3.10;;
74689;SDS011;63221;51.860;-2.188;2022-09-14T13:44:37;7.28;;;2.30;;
74689;SDS011;63221;51.860;-2.188;2022-09-14T13:47:10;5.33;;;1.90;;
74689;SDS011;63221;51.860;-2.188;2022-09-14T13:49:38;7.18;;;2.10;;
74689;SDS011;63221;51.860;-2.188;2022-09-14T13:54:52;4.68;;;1.90;;
74689;SDS011;63221;51.860;-2.188;2022-09-14T13:58:02;3.80;;;2.10;;
74689;SDS011;63221;51.860;-2.188;2022-09-14T14:00:46;5.00;;;1.93;;
74689;SDS011;63221;51.860;-2.188;2022-09-14T14:03:27;3.83;;;2.10;;
74689;SDS011;63221;51.860;-2.188;2022-09-14T14:05:56;7.28;;;2.72;;
74689;SDS011;63221;51.860;-2.188;2022-09-14T14:11:09;5.18;;;2.03;;
74689;SDS011;63221;51.860;-2.188;2022-09-14T14:13:35;6.90;;;2.57;;
74689;SDS011;63221;51.860;-2.188;2022-09-14T14:18:40;5.35;;;2.20;;
74689;SDS011;63221;51.860;-2.188;2022-09-14T14:23:39;5.70;;;2.20;;
74689;SDS011;63221;51.860;-2.188;2022-09-14T14:26:13;5.35;;;2.40;;
74689;SDS011;63221;51.860;-2.188;2022-09-14T14:28:41;3.80;;;2.63;;
74689;SDS011;63221;51.860;-2.188;2022-09-14T14:31:10;9.63;;;2.30;;
74689;SDS011;63221;51.860;-2.188;2022-09-14T14:33:49;5.25;;;2.92;;
74689;SDS011;63221;51.860;-2.188;2022-09-14T14:36:17;6.00;;;2.63;;
74689;SDS011;63221;51.860;-2.188;2022-09-14T14:38:43;6.88;;;2.67;;
74689;SDS011;63221;51.860;-2.188;2022-09-14T14:41:28;7.18;;;3.22;;
74689;SDS011;63221;51.860;-2.188;2022-09-14T14:43:53;5.25;;;2.60;;
74689;SDS011;63221;51.860;-2.188;2022-09-14T14:46:18;5.27;;;3.47;;
74689;SDS011;63221;51.860;-2.188;2022-09-14T14:48:44;5.03;;;2.23;;
74689;SDS011;63221;51.860;-2.188;2022-09-14T14:51:12;8.73;;;2.67;;
74689;SDS011;63221;51.860;-2.188;2022-09-14T14:53:39;7.83;;;2.97;;
74689;SDS011;63221;51.860;-2.188;2022-09-14T14:56:05;3.85;;;3.45;;
74689;SDS011;63221;51.860;-2.188;2022-09-14T14:58:31;6.07;;;2.60;;
74689;SDS011;63221;51.860;-2.188;2022-09-14T15:00:56;6.03;;;2.90;;
74689;SDS011;63221;51.860;-2.188;2022-09-14T15:03:21;6.80;;;3.27;;
74689;SDS011;63221;51.860;-2.188;2022-09-14T15:05:47;7.97;;;3.50;;
74689;SDS011;63221;51.860;-2.188;2022-09-14T15:08:14;5.00;;;3.05;;
74689;SDS011;63221;51.860;-2.188;2022-09-14T15:10:41;5.90;;;2.78;;
74689;SDS011;63221;51.860;-2.188;2022-09-14T15:13:07;7.30;;;2.43;;
74689;SDS011;63221;51.860;-2.188;2022-09-14T15:15:34;6.95;;;3.20;;
74689;SDS011;63221;51.860;-2.188;2022-09-14T15:17:59;4.73;;;2.73;;
74689;SDS011;63221;51.860;-2.188;2022-09-14T15:20:25;5.40;;;2.40;;
74689;SDS011;63221;51.860;-2.188;2022-09-14T15:22:50;7.33;;;2.87;;
74689;SDS011;63221;51.860;-2.188;2022-09-14T15:25:17;8.53;;;2.90;;
74689;SDS011;63221;51.860;-2.188;2022-09-14T15:27:43;6.50;;;3.10;;
74689;SDS011;63221;51.860;-2.188;2022-09-14T15:30:09;3.53;;;2.30;;
74689;SDS011;63221;51.860;-2.188;2022-09-14T15:32:35;5.22;;;2.42;;
74689;SDS011;63221;51.860;-2.188;2022-09-14T15:35:01;6.17;;;2.77;;
74689;SDS011;63221;51.860;-2.188;2022-09-14T15:37:26;5.23;;;2.20;;
74689;SDS011;63221;51.860;-2.188;2022-09-14T15:39:52;4.60;;;1.90;;
74689;SDS011;63221;51.860;-2.188;2022-09-14T15:42:18;5.05;;;2.60;;
74689;SDS011;63221;51.860;-2.188;2022-09-14T15:44:44;7.67;;;2.73;;
74689;SDS011;63221;51.860;-2.188;2022-09-14T15:47:13;6.00;;;2.28;;
74689;SDS011;63221;51.860;-2.188;2022-09-14T15:49:41;4.78;;;2.53;;
74689;SDS011;63221;51.860;-2.188;2022-09-14T15:52:07;7.43;;;2.00;;
74689;SDS011;63221;51.860;-2.188;2022-09-14T15:54:34;4.28;;;2.40;;
74689;SDS011;63221;51.860;-2.188;2022-09-14T15:57:01;4.95;;;2.40;;
74689;SDS011;63221;51.860;-2.188;2022-09-14T15:59:28;4.20;;;2.10;;
74689;SDS011;63221;51.860;-2.188;2022-09-14T16:01:53;5.70;;;2.40;;
74689;SDS011;63221;51.860;-2.188;2022-09-14T16:04:19;4.45;;;2.60;;
74689;SDS011;63221;51.860;-2.188;2022-09-14T16:06:45;5.50;;;2.33;;
74689;SDS011;63221;51.860;-2.188;2022-09-14T16:09:11;7.05;;;2.72;;
74689;SDS011;63221;51.860;-2.188;2022-09-14T16:11:38;5.60;;;2.78;;
74689;SDS011;63221;51.860;-2.188;2022-09-14T16:14:04;5.97;;;2.80;;
74689;SDS011;63221;51.860;-2.188;2022-09-14T16:16:31;4.65;;;2.78;;
74689;SDS011;63221;51.860;-2.188;2022-09-14T16:18:57;7.88;;;2.95;;
74689;SDS011;63221;51.860;-2.188;2022-09-14T16:21:34;5.20;;;2.13;;
74689;SDS011;63221;51.860;-2.188;2022-09-14T16:24:01;4.20;;;2.22;;
74689;SDS011;63221;51.860;-2.188;2022-09-14T16:26:29;5.30;;;2.37;;
74689;SDS011;63221;51.860;-2.188;2022-09-14T16:28:56;5.70;;;2.40;;
74689;SDS011;63221;51.860;-2.188;2022-09-14T16:31:23;4.35;;;1.88;;
74689;SDS011;63221;51.860;-2.188;2022-09-14T16:33:51;4.43;;;1.80;;
74689;SDS011;63221;51.860;-2.188;2022-09-14T16:36:20;2.97;;;1.88;;
74689;SDS011;63221;51.860;-2.188;2022-09-14T16:38:51;4.30;;;2.00;;
74689;SDS011;63221;51.860;-2.188;2022-09-14T16:41:17;7.13;;;2.65;;
74689;SDS011;63221;51.860;-2.188;2022-09-14T16:43:42;4.97;;;2.83;;
74689;SDS011;63221;51.860;-2.188;2022-09-14T16:48:34;5.73;;;2.07;;
74689;SDS011;63221;51.860;-2.188;2022-09-14T16:51:01;4.25;;;1.83;;
74689;SDS011;63221;51.860;-2.188;2022-09-14T16:53:27;3.70;;;2.05;;
74689;SDS011;63221;51.860;-2.188;2022-09-14T16:56:04;4.72;;;1.90;;
74689;SDS011;63221;51.860;-2.188;2022-09-14T16:58:31;3.45;;;1.55;;
74689;SDS011;63221;51.860;-2.188;2022-09-14T17:01:02;2.53;;;1.93;;
74689;SDS011;63221;51.860;-2.188;2022-09-14T17:03:34;3.65;;;1.83;;